Time;durP1;ratioP1;P1;durP2;ratioP2;P2;SDS_P1;SDS_P2;PMS_P1;PMS_P2;Temp;Humidity;BMP_temperature;BMP_pressure;BME280_temperature;BME280_humidity;BME280_pressure;Samples;Min_cycle;Max_cycle;Signal;HPM_P1;HPM_P2
2024/01/09 07:01:20;;;;;;;0.43;0.43;;;-3.10;99.90;-0.60;102956.00;;;;6200035;22;1418684;-75
2024/01/09 07:03:46;;;;;;;0.73;0.60;;;-3.00;99.90;-1.40;102988.00;;;;6221283;23;20153;-75
2024/01/09 07:06:12;;;;;;;0.23;0.23;;;-3.10;99.90;-0.70;102996.00;;;;6245760;23;20475;-75
2024/01/09 07:08:38;;;;;;;0.53;0.53;;;-3.10;99.90;-1.00;103012.00;;;;6246484;23;20172;-74
2024/01/09 07:11:07;;;;;;;0.73;0.73;;;-3.00;99.90;-0.30;103004.00;;;;6221013;23;20240;-74
2024/01/09 07:13:33;;;;;;;4.13;1.07;;;-2.90;99.90;-1.30;103015.00;;;;6246553;23;20605;-74
2024/01/09 07:16:03;;;;;;;1.53;1.47;;;-3.10;99.90;-0.90;103020.00;;;;6220761;23;20157;-74
2024/01/09 07:18:29;;;;;;;0.83;0.83;;;-3.10;99.90;-1.60;103030.00;;;;6221302;23;20555;-74
2024/01/09 07:20:58;;;;;;;0.40;0.40;;;-3.30;99.90;-1.50;103003.00;;;;6245644;23;20950;-75
2024/01/09 07:23:24;;;;;;;0.50;0.50;;;-3.40;99.90;-1.40;103000.00;;;;6245820;23;20145;-74
2024/01/09 07:25:50;;;;;;;0.97;0.97;;;-3.50;99.90;-1.80;103028.00;;;;6247407;22;20364;-75
2024/01/09 07:28:22;;;;;;;1.00;0.90;;;-3.40;99.90;-2.40;103029.00;;;;6246225;23;20630;-74
2024/01/09 07:30:48;;;;;;;1.73;1.40;;;-3.70;99.90;-2.50;103017.00;;;;6245966;23;20178;-74
2024/01/09 07:33:33;;;;;;;0.87;0.80;;;-3.60;99.90;-1.50;102998.00;;;;6246380;23;20174;-74
2024/01/09 07:36:19;;;;;;;2.20;1.80;;;-3.50;99.90;-2.00;103011.00;;;;6245106;23;20205;-74
2024/01/09 07:38:46;;;;;;;0.22;0.22;;;-3.50;99.90;-1.60;103002.00;;;;6245006;23;20393;-74
2024/01/09 07:41:20;;;;;;;1.67;1.57;;;-3.50;99.90;-2.00;103007.00;;;;6246196;23;20196;-74
2024/01/09 07:43:54;;;;;;;2.90;1.87;;;-3.60;99.90;-2.50;102942.00;;;;6246143;23;20220;-74
2024/01/09 07:46:26;;;;;;;0.60;0.60;;;-3.60;99.90;-1.80;102921.00;;;;6246107;23;20166;-74
2024/01/09 07:48:51;;;;;;;1.13;1.03;;;-3.60;99.90;-2.70;103022.00;;;;6243768;23;20188;-74
2024/01/09 07:51:23;;;;;;;0.47;0.47;;;-3.80;99.90;-2.00;102997.00;;;;6220142;23;20520;-75
2024/01/09 07:53:57;;;;;;;1.90;1.63;;;-3.70;99.90;-2.10;102987.00;;;;6219734;23;20235;-75
2024/01/09 07:56:43;;;;;;;1.73;1.63;;;-3.50;99.90;-2.00;102989.00;;;;6244785;23;20194;-75
2024/01/09 07:59:09;;;;;;;0.30;0.30;;;-3.60;99.90;-1.40;102966.00;;;;6244473;23;20168;-75
2024/01/09 08:01:43;;;;;;;2.50;1.40;;;-3.50;99.90;-2.50;102974.00;;;;6247961;22;20157;-74
2024/01/09 08:04:47;;;;;;;0.73;0.73;;;-3.60;99.90;-1.60;102961.00;;;;6246262;22;20188;-75
2024/01/09 08:07:50;;;;;;;1.60;1.10;;;-3.60;99.90;-1.90;102953.00;;;;6245784;23;20518;-76
2024/01/09 08:10:51;;;;;;;1.13;0.97;;;-3.50;99.90;-2.00;102981.00;;;;6245777;23;20593;-75
2024/01/09 08:13:55;;;;;;;0.30;0.30;;;-3.50;99.90;-1.30;102954.00;;;;6246879;22;20173;-75
2024/01/09 08:16:59;;;;;;;1.60;1.00;;;-3.40;99.90;-1.60;102979.00;;;;6245815;23;20595;-74
2024/01/09 08:20:07;;;;;;;1.73;1.03;;;-3.40;99.90;-1.30;102977.00;;;;6245141;23;20152;-74
2024/01/09 08:22:45;;;;;;;2.73;1.07;;;-3.30;99.90;-2.20;102976.00;;;;6220342;23;20161;-74
2024/01/09 08:25:49;;;;;;;2.23;2.00;;;-3.50;99.90;-1.90;102980.00;;;;6247167;22;20220;-74
2024/01/09 08:28:32;;;;;;;1.27;1.27;;;-3.50;99.90;-1.80;102983.00;;;;6246651;22;20523;-74
2024/01/09 08:31:25;;;;;;;0.53;0.53;;;-3.40;99.90;-1.20;102974.00;;;;6246880;22;20547;-74
2024/01/09 08:34:26;;;;;;;1.77;1.67;;;-3.20;99.90;-2.40;102982.00;;;;6244754;23;20205;-74
2024/01/09 08:37:35;;;;;;;0.60;0.60;;;-3.30;99.90;-2.00;102997.00;;;;6245920;22;20163;-74
2024/01/09 08:44:05;;;;;;;2.20;1.50;;;-3.30;99.90;-1.70;102951.00;;;;6245696;23;20157;-74
2024/01/09 08:47:06;;;;;;;2.93;1.87;;;-3.40;99.90;-1.50;102968.00;;;;6245680;23;20608;-74
2024/01/09 08:49:53;;;;;;;3.10;1.07;;;-3.20;99.90;-1.60;102965.00;;;;6246292;22;20153;-74
2024/01/09 08:52:27;;;;;;;0.60;0.60;;;-3.20;99.90;-0.70;102974.00;;;;6245443;23;20169;-74
2024/01/09 08:55:01;;;;;;;1.17;1.17;;;-2.90;99.90;-1.60;102983.00;;;;6245298;23;20154;-74
2024/01/09 08:58:12;;;;;;;3.70;1.33;;;-3.00;99.90;-1.00;102994.00;;;;6245191;23;20542;-74
2024/01/09 09:01:25;;;;;;;0.93;0.90;;;-2.80;99.90;-2.20;102834.00;;;;6245133;23;20223;-73
2024/01/09 09:04:09;;;;;;;0.40;0.40;;;-3.00;99.90;-1.00;102930.00;;;;6219747;23;20582;-79
2024/01/09 09:06:40;;;;;;;0.60;0.60;;;-3.00;99.90;-1.20;102983.00;;;;6219919;23;20155;-79
2024/01/09 09:09:09;;;;;;;2.27;2.17;;;-2.90;99.90;-1.30;103017.00;;;;6246682;22;20176;-78
2024/01/09 09:12:33;;;;;;;0.50;0.50;;;-2.90;99.90;-0.70;103008.00;;;;6220334;23;20180;-78
2024/01/09 09:15:44;;;;;;;1.80;1.70;;;-2.60;99.90;-0.80;103011.00;;;;6239079;23;20160;-79
2024/01/09 09:18:50;;;;;;;1.47;1.37;;;-2.60;99.90;-0.70;103019.00;;;;6244027;23;20154;-79
2024/01/09 09:21:41;;;;;;;1.57;1.47;;;-2.60;99.90;-0.30;102924.00;;;;6219032;23;20832;-78
2024/01/09 09:24:57;;;;;;;1.40;1.27;;;-2.50;99.90;-0.40;103013.00;;;;6244808;23;20138;-79
2024/01/09 09:27:42;;;;;;;1.27;1.27;;;-2.30;99.90;0.70;102987.00;;;;6244542;23;20145;-79
2024/01/09 09:30:34;;;;;;;0.47;0.30;;;-1.90;99.90;-0.20;102963.00;;;;6243578;23;20165;-70
2024/01/09 09:33:16;;;;;;;1.50;1.40;;;-2.30;99.90;-0.50;103019.00;;;;6219827;23;20243;-78
2024/01/09 09:35:52;;;;;;;1.40;1.27;;;-2.20;99.90;-0.90;103031.00;;;;6220643;23;20259;-77
2024/01/09 09:38:44;;;;;;;4.17;1.47;;;-2.40;99.90;-0.80;103017.00;;;;6219590;23;20164;-77
2024/01/09 09:41:46;;;;;;;2.37;2.23;;;-2.20;99.90;-0.90;103031.00;;;;6228916;23;20164;-77
2024/01/09 09:44:42;;;;;;;2.10;1.43;;;-2.10;99.90;-0.10;103007.00;;;;6213460;23;20192;-77
2024/01/09 09:47:44;;;;;;;0.70;0.70;;;-2.00;99.90;1.20;103002.00;;;;6219399;23;20200;-78
2024/01/09 09:50:56;;;;;;;0.40;0.40;;;-1.60;99.90;1.00;102997.00;;;;6219604;23;20166;-77
2024/01/09 09:54:05;;;;;;;0.50;0.50;;;-1.30;99.90;1.90;102989.00;;;;6243460;23;20166;-78
2024/01/09 09:56:57;;;;;;;4.77;2.73;;;-0.90;99.90;0.90;103003.00;;;;6243236;23;20165;-77
2024/01/09 09:59:45;;;;;;;0.20;0.20;;;-1.30;99.90;1.70;102975.00;;;;6218234;23;20173;-71
2024/01/09 10:02:27;;;;;;;1.30;1.20;;;-0.90;99.90;0.10;103020.00;;;;6243849;23;20188;-78
2024/01/09 10:05:21;;;;;;;1.17;1.07;;;-1.20;99.90;2.00;102987.00;;;;6216797;23;20163;-78
2024/01/09 10:08:28;;;;;;;2.00;1.90;;;-0.80;99.90;1.20;102994.00;;;;6218289;23;20161;-78
2024/01/09 10:10:57;;;;;;;0.80;0.80;;;-0.50;99.90;1.30;103011.00;;;;6239150;23;20161;-72
2024/01/09 10:14:17;;;;;;;0.73;0.30;;;-0.90;99.90;1.40;103004.00;;;;6245730;22;20179;-78
2024/01/09 10:16:50;;;;;;;0.77;0.77;;;-0.70;99.90;1.90;102978.00;;;;6218705;23;20157;-79
2024/01/09 10:19:55;;;;;;;2.00;1.90;;;-0.50;99.90;1.20;102986.00;;;;6244462;23;20142;-77
2024/01/09 10:33:31;;;;;;;1.50;1.37;;;-1.40;99.90;0.30;103007.00;;;;5068828;28;20555;-76
2024/01/09 10:36:54;;;;;;;1.27;0.97;;;-1.10;99.90;2.00;102986.00;;;;5046135;28;20194;-77
2024/01/09 10:39:46;;;;;;;0.47;0.47;;;-0.40;99.90;3.40;102946.00;;;;5034482;28;20190;-78
2024/01/09 10:42:44;;;;;;;4.13;2.73;;;0.20;99.90;1.60;102959.00;;;;5051915;28;20255;-78
2024/01/09 10:45:52;;;;;;;3.53;3.30;;;0.10;99.90;1.00;102981.00;;;;5029315;28;20207;-77
2024/01/09 10:48:58;;;;;;;4.73;1.67;;;-0.40;99.90;2.50;102960.00;;;;5040529;28;20182;-79
2024/01/09 10:51:56;;;;;;;0.40;0.40;;;-0.30;99.90;2.60;102940.00;;;;5025911;28;20218;-76
2024/01/09 10:55:00;;;;;;;3.03;2.30;;;0.40;99.90;1.00;102957.00;;;;5048201;28;20217;-76
2024/01/09 10:58:18;;;;;;;2.47;2.33;;;-0.30;99.90;2.70;102938.00;;;;5042788;28;20197;-76
2024/01/09 11:01:20;;;;;;;1.30;1.20;;;0.10;99.90;1.30;102942.00;;;;5046103;28;20268;-76
2024/01/09 11:04:27;;;;;;;0.75;0.75;;;0.40;99.90;2.80;102916.00;;;;5046932;28;20565;-76
2024/01/09 11:07:35;;;;;;;0.87;0.67;;;0.30;99.90;3.90;102889.00;;;;5042880;28;20702;-76
2024/01/09 11:10:42;;;;;;;2.73;2.47;;;0.90;99.90;2.10;102929.00;;;;5047745;28;20372;-76
2024/01/09 11:13:20;;;;;;;2.63;1.97;;;0.30;99.90;1.50;102924.00;;;;5044222;28;20288;-75
2024/01/09 11:16:25;;;;;;;3.00;2.73;;;0.10;99.90;1.70;102943.00;;;;5048191;28;20186;-75
2024/01/09 11:19:17;;;;;;;0.20;0.20;;;0.10;99.90;3.50;102914.00;;;;5050984;28;20186;-76
2024/01/09 11:22:13;;;;;;;9.87;4.33;;;0.40;99.90;1.60;102933.00;;;;5048368;28;20221;-76
2024/01/09 11:24:53;;;;;;;0.93;0.93;;;0.20;99.90;3.10;102909.00;;;;5028300;28;20233;-76
2024/01/09 11:27:58;;;;;;;1.23;0.83;;;0.70;99.90;3.80;102884.00;;;;5031525;28;20269;-76
2024/01/09 11:30:51;;;;;;;7.13;1.93;;;1.00;99.90;2.50;102903.00;;;;5040722;28;20187;-76
2024/01/09 11:34:24;;;;;;;1.20;1.10;;;0.80;99.90;2.50;102919.00;;;;5047779;28;20224;-76
2024/01/09 11:37:29;;;;;;;5.50;2.60;;;0.20;99.90;2.10;102881.00;;;;5047781;28;20224;-76
2024/01/09 11:40:17;;;;;;;0.73;0.73;;;0.40;99.90;2.10;102818.00;;;;5057918;28;20190;-77
2024/01/09 11:43:27;;;;;;;2.20;2.00;;;0.30;99.90;1.70;102879.00;;;;5044293;28;20668;-76
2024/01/09 11:46:21;;;;;;;4.80;2.27;;;0.20;99.90;1.50;102895.00;;;;5034542;28;20187;-76
2024/01/09 11:49:36;;;;;;;1.57;1.37;;;0.10;99.90;2.60;102847.00;;;;5023311;28;20183;-77
2024/01/09 11:52:31;;;;;;;2.23;1.77;;;0.40;99.90;1.50;102882.00;;;;5048327;28;20211;-76
2024/01/09 11:55:52;;;;;;;1.07;1.00;;;0.40;99.90;3.30;102851.00;;;;5032013;28;20194;-76
2024/01/09 11:59:04;;;;;;;1.60;1.50;;;0.60;99.90;2.40;102853.00;;;;4972868;28;20216;-77
2024/01/09 12:02:11;;;;;;;2.10;1.83;;;0.90;99.90;1.80;102857.00;;;;4980174;28;20199;-77
2024/01/09 12:05:03;;;;;;;3.03;2.47;;;0.70;99.90;1.40;102845.00;;;;4973855;28;20270;-77
2024/01/09 12:07:57;;;;;;;0.77;0.77;;;0.50;99.90;2.40;102822.00;;;;4978215;28;20242;-77
2024/01/09 12:10:47;;;;;;;1.63;1.47;;;0.80;99.90;3.00;102817.00;;;;4976001;28;20196;-77
2024/01/09 12:13:28;;;;;;;1.00;0.93;;;0.80;99.90;2.50;102813.00;;;;5009783;28;20224;-77
2024/01/09 12:16:55;;;;;;;2.43;1.07;;;0.70;99.90;3.60;102809.00;;;;4993271;28;20262;-76
2024/01/09 12:19:52;;;;;;;3.50;1.53;;;1.00;99.90;4.00;102820.00;;;;4976569;28;20192;-76
2024/01/09 12:23:01;;;;;;;1.43;1.30;;;1.50;99.90;2.60;102851.00;;;;4967116;28;20204;-77
2024/01/09 12:25:31;;;;;;;0.83;0.83;;;1.30;99.90;3.70;102762.00;;;;4958783;28;20191;-76
2024/01/09 12:28:57;;;;;;;1.83;1.63;;;1.10;99.90;1.80;102850.00;;;;4976550;28;20204;-76
2024/01/09 12:31:45;;;;;;;1.33;1.23;;;1.10;99.90;3.60;102819.00;;;;4966863;28;20678;-77
2024/01/09 12:34:58;;;;;;;1.27;1.23;;;1.00;99.90;3.80;102823.00;;;;4991299;28;20202;-77
2024/01/09 12:37:50;;;;;;;0.80;0.80;;;1.30;99.90;4.30;102849.00;;;;5033618;28;20225;-77
2024/01/09 12:40:39;;;;;;;0.60;0.60;;;1.80;99.90;3.10;102879.00;;;;5016864;28;20691;-76
2024/01/09 12:43:11;;;;;;;0.87;0.87;;;1.60;99.90;3.50;102880.00;;;;5021384;28;20210;-76
2024/01/09 12:46:07;;;;;;;2.73;1.77;;;1.40;99.90;2.30;102889.00;;;;5033557;28;20197;-71
2024/01/09 12:49:20;;;;;;;5.13;3.27;;;0.90;99.90;2.20;102882.00;;;;5062524;28;20293;-71
2024/01/09 12:52:01;;;;;;;2.93;2.23;;;0.60;99.90;1.40;102891.00;;;;5009468;28;20668;-71
2024/01/09 12:54:45;;;;;;;1.80;1.50;;;0.50;99.90;2.50;102878.00;;;;5028649;28;20178;-71
2024/01/09 12:57:22;;;;;;;3.90;1.10;;;0.70;99.90;2.60;102864.00;;;;5027525;28;20215;-71
2024/01/09 12:59:56;;;;;;;3.10;1.90;;;0.90;99.90;2.50;102780.00;;;;5036468;28;20182;-71
2024/01/09 13:02:30;;;;;;;1.60;1.50;;;0.70;99.90;2.40;102870.00;;;;5024703;28;20220;-71
2024/01/09 13:05:02;;;;;;;2.67;1.10;;;0.90;99.90;2.80;102830.00;;;;5062536;28;20182;-71
2024/01/09 13:07:34;;;;;;;1.43;1.33;;;1.00;99.90;2.50;102849.00;;;;5033396;28;20187;-71
2024/01/09 13:10:06;;;;;;;0.53;0.53;;;0.90;99.90;2.70;102859.00;;;;5032907;28;20560;-71
2024/01/09 13:12:37;;;;;;;2.00;1.77;;;0.90;99.90;2.20;102849.00;;;;5032725;28;20203;-71
2024/01/09 13:15:04;;;;;;;5.20;2.20;;;0.90;99.90;2.40;102867.00;;;;5033599;28;20170;-71
2024/01/09 13:17:41;;;;;;;2.57;1.63;;;0.80;99.90;2.10;102859.00;;;;5034774;28;20174;-71
2024/01/09 13:20:15;;;;;;;1.70;1.60;;;0.70;99.90;2.60;102829.00;;;;5007741;28;20657;-71
2024/01/09 13:22:49;;;;;;;0.30;0.30;;;0.90;99.90;3.40;102847.00;;;;5033691;28;20186;-71
2024/01/09 13:25:25;;;;;;;2.47;2.27;;;1.00;99.90;2.10;102851.00;;;;5032276;28;20194;-71
2024/01/09 13:27:54;;;;;;;1.03;0.67;;;0.90;99.90;3.30;102843.00;;;;5033952;28;20183;-71
2024/01/09 13:30:25;;;;;;;4.07;2.17;;;1.00;99.90;1.90;102850.00;;;;5032658;28;20186;-71
2024/01/09 13:33:03;;;;;;;1.57;1.07;;;1.00;99.90;3.70;102846.00;;;;5024399;28;20245;-71
2024/01/09 13:35:38;;;;;;;3.43;1.77;;;1.30;99.90;2.30;102858.00;;;;5032158;28;20187;-71
2024/01/09 13:38:12;;;;;;;1.47;1.37;;;1.20;99.90;2.90;102854.00;;;;5015698;28;20193;-71
2024/01/09 13:40:44;;;;;;;2.27;2.00;;;1.10;99.90;1.80;102792.00;;;;5031547;28;20185;-71
2024/01/09 13:43:19;;;;;;;1.97;1.80;;;0.80;99.90;2.20;102850.00;;;;5033785;28;20256;-71
2024/01/09 13:45:54;;;;;;;1.87;1.40;;;0.70;99.90;2.70;102854.00;;;;5029029;28;20196;-72
2024/01/09 13:48:28;;;;;;;7.53;5.43;;;0.80;99.90;3.40;102845.00;;;;5031504;28;20281;-72
2024/01/09 13:50:59;;;;;;;2.23;1.70;;;1.10;99.90;2.70;102862.00;;;;5032327;28;20194;-71
2024/01/09 13:53:33;;;;;;;1.47;1.13;;;1.10;99.90;2.60;102853.00;;;;5031735;28;20214;-71
2024/01/09 13:56:06;;;;;;;0.60;0.60;;;0.80;99.90;2.50;102850.00;;;;5031856;28;20265;-72
2024/01/09 13:58:41;;;;;;;1.60;0.90;;;0.60;99.90;3.10;102856.00;;;;5032176;28;20175;-72
2024/01/09 14:01:21;;;;;;;2.33;2.03;;;0.90;99.90;2.40;102854.00;;;;5031999;28;20205;-71
2024/01/09 14:03:52;;;;;;;1.80;1.63;;;0.80;99.90;3.40;102837.00;;;;5024483;28;20272;-71
2024/01/09 14:06:21;;;;;;;2.90;2.63;;;1.00;99.90;2.80;102779.00;;;;5031971;28;20324;-71
2024/01/09 14:09:16;;;;;;;1.70;1.60;;;1.10;99.90;2.30;102846.00;;;;5032907;28;20179;-71
2024/01/09 14:11:53;;;;;;;4.13;1.27;;;0.80;99.90;2.90;102768.00;;;;5036162;28;20587;-72
2024/01/09 14:14:48;;;;;;;2.20;0.80;;;0.90;99.90;3.70;102834.00;;;;5031807;28;20195;-72
2024/01/09 14:17:48;;;;;;;1.77;1.23;;;1.00;99.90;2.80;102821.00;;;;5032916;28;20183;-71
2024/01/09 14:20:26;;;;;;;2.30;0.90;;;0.90;99.90;3.00;102838.00;;;;5028658;28;20211;-71
2024/01/09 14:23:09;;;;;;;1.07;1.03;;;0.90;99.90;3.00;102784.00;;;;5031617;28;20564;-71
2024/01/09 14:25:58;;;;;;;8.60;4.63;;;0.80;99.90;2.40;102820.00;;;;5015561;28;20192;-71
2024/01/09 14:28:33;;;;;;;3.43;2.87;;;0.80;99.90;1.80;102833.00;;;;5031956;28;20189;-71
2024/01/09 14:31:15;;;;;;;0.70;0.70;;;0.60;99.90;2.20;102787.00;;;;5032855;28;20646;-71
2024/01/09 14:33:49;;;;;;;3.03;2.10;;;0.60;99.90;1.80;102842.00;;;;5032029;28;20206;-71
2024/01/09 14:36:28;;;;;;;1.60;1.50;;;0.70;99.90;2.00;102839.00;;;;5015063;28;20197;-71
2024/01/09 14:39:19;;;;;;;2.23;1.63;;;0.60;99.90;2.90;102837.00;;;;5032088;28;20553;-71
2024/01/09 14:41:59;;;;;;;1.73;1.63;;;0.80;99.90;2.50;102833.00;;;;5026310;28;20659;-72
2024/01/09 14:44:34;;;;;;;2.17;1.63;;;0.80;99.90;2.40;102828.00;;;;5018190;28;20209;-71
2024/01/09 14:47:19;;;;;;;1.90;1.80;;;0.70;99.90;3.20;102823.00;;;;5060585;28;20538;-72
2024/01/09 14:49:56;;;;;;;1.40;1.30;;;0.90;99.90;3.70;102827.00;;;;5030845;28;20546;-72
2024/01/09 14:52:36;;;;;;;5.03;1.23;;;1.10;99.90;2.60;102836.00;;;;5031358;28;20282;-71
2024/01/09 14:55:31;;;;;;;2.17;1.97;;;1.00;99.90;1.90;102762.00;;;;5031697;28;20240;-72
2024/01/09 14:58:35;;;;;;;3.30;2.13;;;0.70;99.90;2.60;102750.00;;;;5025231;28;20238;-71
2024/01/09 15:01:13;;;;;;;1.23;0.70;;;0.80;99.90;3.10;102802.00;;;;5025634;28;20193;-71
2024/01/09 15:03:56;;;;;;;1.57;1.13;;;0.80;99.90;2.50;102817.00;;;;5031721;28;20191;-73
2024/01/09 15:06:22;;;;;;;2.87;1.67;;;0.80;99.90;2.60;102749.00;;;;5028986;28;20225;-71
2024/01/09 15:08:48;;;;;;;2.03;1.83;;;0.80;99.90;1.90;102848.00;;;;5028970;28;20509;-72
2024/01/09 15:11:40;;;;;;;2.50;1.70;;;0.60;99.90;2.60;102825.00;;;;5027717;28;20226;-71
2024/01/09 15:14:49;;;;;;;4.97;2.03;;;0.80;99.90;1.60;102832.00;;;;5010049;28;20191;-71
2024/01/09 15:17:35;;;;;;;1.93;0.97;;;0.60;99.90;2.30;102832.00;;;;5024640;28;20205;-71
2024/01/09 15:21:01;;;;;;;1.30;1.13;;;0.60;99.90;2.40;102754.00;;;;5028198;28;20281;-71
2024/01/09 15:23:59;;;;;;;0.57;0.57;;;0.60;99.90;2.70;102831.00;;;;5029971;28;20189;-71
2024/01/09 15:30:39;;;;;;;2.33;1.47;;;0.70;99.90;2.60;102792.00;;;;5029224;28;20190;-72
2024/01/09 15:36:35;;;;;;;1.07;0.97;;;0.40;99.90;2.20;102831.00;;;;5032756;28;20240;-71
2024/01/09 15:39:19;;;;;;;0.20;0.20;;;0.50;99.90;2.40;102826.00;;;;5029970;28;20185;-70
2024/01/09 15:42:03;;;;;;;0.57;0.57;;;0.40;99.90;3.40;102821.00;;;;5023211;28;20187;-71
2024/01/09 15:44:49;;;;;;;0.87;0.73;;;0.60;99.90;3.40;102822.00;;;;5028539;28;20203;-72
2024/01/09 15:47:20;;;;;;;1.23;1.17;;;0.80;99.90;3.60;102831.00;;;;5033532;28;20199;-71
2024/01/09 15:49:46;;;;;;;1.40;0.77;;;0.80;99.90;2.80;102841.00;;;;5035239;28;20217;-71
2024/01/09 15:52:12;;;;;;;0.50;0.50;;;0.70;99.90;3.30;102845.00;;;;5030826;28;20207;-72
2024/01/09 15:54:41;;;;;;;0.53;0.53;;;0.60;99.90;3.10;102852.00;;;;5065900;28;20187;-72
2024/01/09 15:57:07;;;;;;;0.70;0.70;;;0.60;99.90;3.00;102845.00;;;;5023828;28;20195;-72
2024/01/09 15:59:34;;;;;;;0.87;0.87;;;0.70;99.90;3.00;102846.00;;;;5033863;28;20186;-72
2024/01/09 16:02:00;;;;;;;0.87;0.80;;;0.60;99.90;2.60;102838.00;;;;5035252;28;20637;-72
2024/01/09 16:04:28;;;;;;;0.20;0.20;;;0.60;99.90;2.30;102869.00;;;;5016966;28;20202;-71
2024/01/09 16:07:22;;;;;;;1.40;1.30;;;0.30;99.90;3.20;102869.00;;;;5059853;28;20237;-71
2024/01/09 16:09:48;;;;;;;1.13;1.03;;;0.60;99.90;4.00;102865.00;;;;5068925;28;20191;-73
2024/01/09 16:12:19;;;;;;;0.83;0.83;;;0.80;99.90;2.00;102877.00;;;;5042526;28;20261;-80
2024/01/09 16:14:53;;;;;;;0.63;0.63;;;0.30;99.90;1.90;102859.00;;;;5035247;28;20179;-71
2024/01/09 16:17:20;;;;;;;0.37;0.37;;;0.20;99.90;2.10;102884.00;;;;5034831;28;20186;-72
2024/01/09 16:19:46;;;;;;;1.90;1.80;;;0.10;99.90;1.80;102868.00;;;;5037990;28;20179;-72
2024/01/09 16:22:33;;;;;;;0.20;0.20;;;0.00;99.90;2.70;102864.00;;;;5038304;28;20297;-71
2024/01/09 16:25:19;;;;;;;3.00;0.80;;;0.30;99.90;2.50;102819.00;;;;5031447;28;20193;-72
2024/01/09 16:28:21;;;;;;;1.43;1.33;;;0.30;99.90;2.50;102883.00;;;;5015395;28;20232;-71
2024/01/09 16:30:52;;;;;;;0.57;0.47;;;0.30;99.90;2.10;102870.00;;;;5029004;28;20178;-71
2024/01/09 16:33:20;;;;;;;1.63;1.53;;;0.10;99.90;2.10;102900.00;;;;5026728;28;20579;-71
2024/01/09 16:35:48;;;;;;;3.93;2.00;;;0.10;99.90;2.50;102874.00;;;;5032669;28;20191;-71
2024/01/09 16:38:14;;;;;;;0.37;0.37;;;0.20;99.90;2.60;102875.00;;;;5030427;28;20194;-72
2024/01/09 16:40:58;;;;;;;2.10;0.60;;;0.10;99.90;1.40;102871.00;;;;5033843;28;20186;-71
2024/01/09 16:43:23;;;;;;;1.13;1.03;;;-0.10;99.90;2.20;102865.00;;;;5014279;28;20278;-72
2024/01/09 16:45:52;;;;;;;0.80;0.80;;;0.10;99.90;2.10;102809.00;;;;5030873;28;20278;-71
2024/01/09 16:48:23;;;;;;;0.53;0.53;;;0.00;99.90;1.70;102869.00;;;;5024933;28;20629;-71
2024/01/09 16:50:55;;;;;;;2.27;1.47;;;-0.20;99.90;2.20;102885.00;;;;5027234;28;20191;-71
2024/01/09 16:53:38;;;;;;;1.17;1.07;;;-0.10;99.90;2.00;102820.00;;;;5028324;28;20309;-72
2024/01/09 16:56:20;;;;;;;0.30;0.30;;;0.00;99.90;2.30;102870.00;;;;5028439;28;20198;-72
2024/01/09 16:59:04;;;;;;;0.70;0.70;;;0.00;99.90;1.60;102891.00;;;;5025253;28;20178;-71
2024/01/09 17:01:32;;;;;;;0.87;0.87;;;-0.10;99.90;1.70;102881.00;;;;5025640;28;20557;-71
2024/01/09 17:04:06;;;;;;;3.20;1.17;;;-0.20;99.90;1.80;102813.00;;;;5026417;28;20202;-71
2024/01/09 17:07:00;;;;;;;1.43;0.83;;;-0.20;99.90;1.80;102877.00;;;;5026196;28;20301;-71
2024/01/09 17:09:53;;;;;;;4.53;2.47;;;-0.20;99.90;0.90;102890.00;;;;5026349;28;20254;-71
2024/01/09 17:13:00;;;;;;;3.07;1.93;;;-0.30;99.90;2.00;102891.00;;;;5018112;28;20226;-70
2024/01/09 17:16:24;;;;;;;0.80;0.57;;;-0.20;99.90;2.00;102881.00;;;;5032122;28;20237;-69
2024/01/09 17:19:53;;;;;;;3.27;2.10;;;0.10;99.90;1.90;102838.00;;;;5048431;28;20186;-72
2024/01/09 17:22:21;;;;;;;1.33;1.23;;;-0.10;99.90;2.60;102869.00;;;;5031107;28;20197;-72
2024/01/09 17:24:56;;;;;;;2.77;1.87;;;0.00;99.90;1.00;102904.00;;;;5032856;28;20702;-72
2024/01/09 17:27:23;;;;;;;0.87;0.63;;;-0.30;99.90;1.90;102918.00;;;;5029409;28;20190;-73
2024/01/09 17:29:58;;;;;;;1.50;1.20;;;-0.30;99.90;2.40;102906.00;;;;5030582;28;20197;-72
2024/01/09 17:32:46;;;;;;;0.77;0.70;;;-0.20;99.90;2.30;102829.00;;;;5025962;28;20263;-72
2024/01/09 17:35:23;;;;;;;0.87;0.83;;;-0.20;99.90;2.00;102905.00;;;;5046096;28;20198;-72
2024/01/09 17:38:14;;;;;;;1.30;1.20;;;-0.10;99.90;1.80;102885.00;;;;5026647;28;20225;-72
2024/01/09 17:40:43;;;;;;;1.50;1.20;;;-0.20;99.90;1.00;102917.00;;;;5025428;28;20206;-72
2024/01/09 17:46:29;;;;;;;3.17;2.27;;;-0.60;99.90;1.00;102905.00;;;;5025756;28;20260;-72
2024/01/09 17:49:10;;;;;;;3.80;2.70;;;-0.50;99.90;2.20;102842.00;;;;5012320;28;20175;-72
2024/01/09 17:55:12;;;;;;;0.30;0.30;;;-0.30;99.90;2.00;102900.00;;;;5016049;28;20195;-72
2024/01/09 17:58:07;;;;;;;1.53;1.43;;;-0.30;99.90;1.20;102907.00;;;;5009105;28;20281;-72
2024/01/09 18:00:57;;;;;;;1.07;0.70;;;-0.50;99.90;1.50;102912.00;;;;5008792;28;20194;-72
2024/01/09 18:03:27;;;;;;;1.13;1.07;;;-0.60;99.90;1.80;102899.00;;;;5014495;28;20273;-72
2024/01/09 18:05:56;;;;;;;3.10;0.87;;;-0.40;99.90;2.30;102865.00;;;;5032374;28;20194;-72
2024/01/09 18:13:16;;;;;;;0.93;0.93;;;-0.20;99.90;2.60;102924.00;;;;4952576;29;20232;-72
2024/01/09 18:15:46;;;;;;;1.37;1.23;;;-0.30;99.90;1.20;102935.00;;;;4895266;29;20324;-72
2024/01/09 18:18:31;;;;;;;3.60;3.43;;;-0.30;99.90;1.30;102921.00;;;;4922408;29;20197;-72
2024/01/09 18:20:57;;;;;;;0.43;0.20;;;-0.50;99.90;1.70;102940.00;;;;4923680;29;20210;-72
2024/01/09 18:23:32;;;;;;;0.73;0.60;;;-0.50;99.90;1.40;102927.00;;;;4925283;28;20229;-72
2024/01/09 18:26:02;;;;;;;0.73;0.73;;;-0.50;99.90;1.60;102881.00;;;;4990822;28;20220;-72
2024/01/09 18:28:31;;;;;;;2.03;0.67;;;-0.60;99.90;1.80;102930.00;;;;5047463;28;20709;-72
2024/01/09 18:30:57;;;;;;;0.93;0.83;;;-0.60;99.90;1.60;102917.00;;;;5031924;28;20233;-72
2024/01/09 18:33:51;;;;;;;3.80;2.10;;;-0.50;99.90;0.80;102942.00;;;;5032806;28;20296;-72
2024/01/09 18:36:17;;;;;;;2.10;1.90;;;-0.70;99.90;0.60;102939.00;;;;5015048;28;20214;-72
2024/01/09 18:38:43;;;;;;;0.67;0.67;;;-0.80;99.90;1.20;102928.00;;;;5030464;28;20225;-72
2024/01/09 18:41:09;;;;;;;1.30;1.20;;;-0.70;99.90;2.00;102856.00;;;;5052892;28;20189;-72
2024/01/09 18:44:18;;;;;;;0.80;0.80;;;-0.60;99.90;1.10;102942.00;;;;5020976;28;20273;-72
2024/01/09 18:46:52;;;;;;;2.53;1.47;;;-0.60;99.90;1.90;102923.00;;;;5022392;28;20196;-72
2024/01/09 18:49:49;;;;;;;0.40;0.40;;;-0.60;99.90;1.70;102923.00;;;;5010346;28;20281;-72
2024/01/09 18:52:27;;;;;;;2.97;1.80;;;-0.60;99.90;0.70;102928.00;;;;5004590;28;20223;-72
2024/01/09 18:55:32;;;;;;;0.80;0.80;;;-0.90;99.90;0.90;102916.00;;;;5013669;28;20194;-72
2024/01/09 18:57:59;;;;;;;0.70;0.70;;;-0.80;99.90;1.70;102919.00;;;;4992013;28;20194;-72
2024/01/09 19:01:05;;;;;;;1.80;1.17;;;-0.70;99.90;1.10;102922.00;;;;4995056;28;20192;-71
2024/01/09 19:03:34;;;;;;;1.07;1.00;;;-0.90;99.90;1.10;102933.00;;;;5005934;28;20194;-71
2024/01/09 19:06:02;;;;;;;1.90;1.80;;;-0.90;99.90;0.80;102927.00;;;;5030132;28;20252;-71
2024/01/09 19:08:31;;;;;;;3.50;3.17;;;-0.90;99.90;0.00;102932.00;;;;5033770;28;20214;-72
2024/01/09 19:10:57;;;;;;;0.93;0.80;;;-1.10;99.90;0.70;102858.00;;;;5034654;28;20198;-72
2024/01/09 19:14:01;;;;;;;0.40;0.40;;;-1.10;99.90;1.20;102902.00;;;;5030066;28;20225;-71
2024/01/09 19:16:34;;;;;;;5.53;1.20;;;-1.00;99.90;1.40;102918.00;;;;5033829;28;20194;-71
2024/01/09 19:19:35;;;;;;;1.90;1.80;;;-1.00;99.90;1.80;102923.00;;;;5030148;28;20554;-71
2024/01/09 19:22:12;;;;;;;2.83;2.37;;;-0.80;99.90;1.90;102912.00;;;;5030684;28;20559;-71
2024/01/09 19:24:44;;;;;;;1.17;1.07;;;-0.70;99.90;0.90;102928.00;;;;5030730;28;20190;-71
2024/01/09 19:27:51;;;;;;;1.47;1.37;;;-0.90;99.90;0.40;102926.00;;;;5027253;28;20181;-71
2024/01/09 19:30:18;;;;;;;2.83;1.57;;;-1.00;99.90;1.40;102913.00;;;;5028651;28;20289;-72
2024/01/09 19:32:53;;;;;;;0.47;0.47;;;-0.90;99.90;1.70;102913.00;;;;5030095;28;20653;-70
2024/01/09 19:35:19;;;;;;;1.63;1.53;;;-0.80;99.90;1.50;102889.00;;;;5033549;28;20528;-70
2024/01/09 19:38:08;;;;;;;1.23;1.13;;;-0.90;99.90;0.80;102911.00;;;;5015786;28;20194;-70
2024/01/09 19:40:35;;;;;;;0.40;0.40;;;-1.00;99.90;1.70;102904.00;;;;5033508;28;20190;-70
2024/01/09 19:43:09;;;;;;;2.53;0.57;;;-0.90;99.90;1.30;102824.00;;;;5056810;28;20598;-70
2024/01/09 19:46:01;;;;;;;2.50;1.90;;;-1.00;99.90;0.30;102915.00;;;;5028965;28;20610;-70
2024/01/09 19:48:34;;;;;;;1.80;1.37;;;-1.10;99.90;0.90;102915.00;;;;5034223;28;20197;-70